Time;durP1;ratioP1;P1;durP2;ratioP2;P2;SDS_P1;SDS_P2;PMS_P1;PMS_P2;Temp;Humidity;BMP_temperature;BMP_pressure;BME280_temperature;BME280_humidity;BME280_pressure;Samples;Min_cycle;Max_cycle;Signal;HPM_P1;HPM_P2
2022/07/01 00:00:36;;;;;;;7.15;1.20;;;15.40;99.90;;;;;;6185321;23;20055;-70
2022/07/01 00:03:03;;;;;;;7.60;1.60;;;15.40;99.90;;;;;;6211929;23;20339;-70
2022/07/01 00:05:28;;;;;;;6.30;1.83;;;15.40;99.90;;;;;;6210355;23;20679;-70
2022/07/01 00:07:54;;;;;;;12.98;1.77;;;15.40;99.90;;;;;;6212665;23;20024;-70
2022/07/01 00:10:20;;;;;;;6.13;1.02;;;15.40;99.90;;;;;;6211907;23;20047;-69
2022/07/01 00:12:46;;;;;;;6.25;1.25;;;15.30;99.90;;;;;;6236410;23;20551;-70
2022/07/01 00:15:12;;;;;;;5.45;1.60;;;15.30;99.90;;;;;;6212618;23;20087;-69
2022/07/01 00:17:39;;;;;;;8.35;1.77;;;15.20;99.90;;;;;;6209765;23;20016;-70
2022/07/01 00:20:07;;;;;;;10.18;2.05;;;15.20;99.90;;;;;;6212775;23;20020;-70
2022/07/01 00:22:34;;;;;;;6.30;1.38;;;15.20;99.90;;;;;;6237467;23;20419;-70
2022/07/01 00:25:00;;;;;;;6.68;1.50;;;15.10;99.90;;;;;;6212772;23;20042;-70
2022/07/01 00:27:26;;;;;;;8.30;1.38;;;15.20;99.90;;;;;;6210694;23;20051;-70
2022/07/01 00:29:53;;;;;;;5.18;1.23;;;15.10;99.90;;;;;;6211916;23;20027;-70
2022/07/01 00:32:19;;;;;;;6.25;1.45;;;15.10;99.90;;;;;;6211895;23;20529;-69
2022/07/01 00:34:45;;;;;;;5.93;1.30;;;15.10;99.90;;;;;;6210521;23;20071;-69
2022/07/01 00:37:10;;;;;;;6.43;1.20;;;15.10;99.90;;;;;;6187725;23;20023;-70
2022/07/01 00:39:36;;;;;;;7.18;1.20;;;15.10;99.90;;;;;;6210280;23;20034;-70
2022/07/01 00:42:04;;;;;;;6.00;1.02;;;15.10;99.90;;;;;;6212675;23;20026;-69
2022/07/01 00:44:31;;;;;;;4.00;0.90;;;15.10;99.90;;;;;;6210135;23;20016;-69
2022/07/01 00:47:00;;;;;;;4.38;0.90;;;15.00;99.90;;;;;;6212113;23;20082;-69
2022/07/01 00:49:26;;;;;;;3.60;1.15;;;15.00;99.90;;;;;;6212051;23;20021;-69
2022/07/01 00:51:53;;;;;;;7.35;1.42;;;15.00;99.90;;;;;;6186593;23;20020;-70
2022/07/01 00:54:20;;;;;;;3.72;0.88;;;15.00;99.90;;;;;;6212161;23;20019;-69
2022/07/01 00:56:48;;;;;;;5.20;1.20;;;15.00;99.90;;;;;;6210035;23;20024;-69
2022/07/01 00:59:14;;;;;;;6.60;1.27;;;15.00;99.90;;;;;;6239243;23;20385;-69
2022/07/01 01:01:40;;;;;;;5.28;1.02;;;14.90;99.90;;;;;;6209590;23;20016;-69
2022/07/01 01:04:06;;;;;;;2.80;0.90;;;15.00;99.90;;;;;;6212277;23;20020;-69
2022/07/01 01:06:33;;;;;;;9.30;1.10;;;15.00;99.90;;;;;;6211062;23;20020;-69
2022/07/01 01:08:59;;;;;;;5.95;1.20;;;15.00;99.90;;;;;;6211033;23;20370;-68
2022/07/01 01:11:26;;;;;;;3.42;0.90;;;15.00;99.90;;;;;;6239070;23;20031;-69
2022/07/01 01:13:51;;;;;;;6.00;1.00;;;15.10;99.90;;;;;;6185173;23;20027;-69
2022/07/01 01:16:21;;;;;;;4.20;0.82;;;15.00;99.90;;;;;;6239377;23;20119;-68
2022/07/01 01:18:47;;;;;;;2.85;0.73;;;15.00;99.90;;;;;;6209875;23;20031;-69
2022/07/01 01:21:13;;;;;;;5.00;0.70;;;15.10;99.90;;;;;;6211992;23;20024;-69
2022/07/01 01:23:39;;;;;;;2.78;0.80;;;15.00;99.90;;;;;;6236943;23;20016;-69
2022/07/01 01:26:19;;;;;;;4.88;1.27;;;15.10;99.90;;;;;;6239008;23;20119;-69
2022/07/01 01:28:45;;;;;;;4.07;0.98;;;15.00;99.90;;;;;;6211444;23;20022;-69
2022/07/01 01:31:11;;;;;;;3.17;0.70;;;15.00;99.90;;;;;;6210083;23;20020;-69
2022/07/01 01:33:38;;;;;;;1.90;0.80;;;15.00;99.90;;;;;;6211050;23;20024;-68
2022/07/01 01:36:05;;;;;;;2.58;0.85;;;15.10;99.90;;;;;;6210100;23;20016;-68
2022/07/01 01:38:32;;;;;;;4.32;0.90;;;15.10;99.90;;;;;;6236378;23;20095;-68
2022/07/01 01:40:58;;;;;;;2.67;0.70;;;15.10;99.90;;;;;;6236104;23;20506;-68
2022/07/01 01:43:23;;;;;;;1.65;0.88;;;15.10;99.90;;;;;;6236421;22;20016;-68
2022/07/01 01:45:49;;;;;;;3.47;0.88;;;15.10;99.90;;;;;;6238368;23;20143;-68
2022/07/01 01:48:15;;;;;;;1.83;0.60;;;15.10;99.90;;;;;;6237044;23;20351;-68
2022/07/01 01:50:40;;;;;;;1.48;0.63;;;15.00;99.90;;;;;;6211708;23;20028;-68
2022/07/01 01:53:06;;;;;;;3.95;0.65;;;15.00;99.90;;;;;;6234955;23;20028;-69
2022/07/01 01:55:32;;;;;;;4.00;0.63;;;15.10;99.90;;;;;;6237433;23;20031;-68
2022/07/01 01:57:57;;;;;;;3.88;0.80;;;15.00;99.90;;;;;;6210121;23;20020;-68
2022/07/01 02:00:23;;;;;;;2.55;0.60;;;15.00;99.90;;;;;;6238871;23;20016;-68
2022/07/01 02:02:49;;;;;;;2.78;0.40;;;15.00;99.90;;;;;;6184906;23;20050;-68
2022/07/01 02:05:16;;;;;;;1.25;0.43;;;15.00;99.90;;;;;;6235872;23;20077;-68
2022/07/01 02:07:42;;;;;;;1.30;0.38;;;15.10;99.90;;;;;;6236717;23;20529;-68
2022/07/01 02:10:08;;;;;;;2.10;0.65;;;15.00;99.90;;;;;;6209780;23;20020;-68
2022/07/01 02:12:33;;;;;;;2.65;0.60;;;15.00;99.90;;;;;;6238284;23;20020;-68
2022/07/01 02:14:59;;;;;;;1.80;0.50;;;15.00;99.90;;;;;;6236674;22;20019;-68
2022/07/01 02:17:26;;;;;;;1.60;0.57;;;15.00;99.90;;;;;;6237287;23;20087;-68
2022/07/01 02:19:52;;;;;;;2.65;0.65;;;15.00;99.90;;;;;;6235255;23;20016;-68
2022/07/01 02:22:17;;;;;;;2.63;0.50;;;15.00;99.90;;;;;;6238074;22;20016;-68
2022/07/01 02:24:44;;;;;;;4.13;0.68;;;15.10;99.90;;;;;;6238040;23;20020;-68
2022/07/01 02:27:10;;;;;;;4.78;1.17;;;15.10;99.90;;;;;;6210117;23;20020;-68
2022/07/01 02:29:35;;;;;;;5.70;0.80;;;15.10;99.90;;;;;;6186195;23;20024;-68
2022/07/01 02:32:01;;;;;;;1.20;0.50;;;15.10;99.90;;;;;;6209268;23;20332;-68
2022/07/01 02:34:27;;;;;;;1.20;0.70;;;15.10;99.90;;;;;;6211330;23;20028;-68
2022/07/01 02:36:55;;;;;;;3.42;0.60;;;15.00;99.90;;;;;;6236435;23;20439;-68
2022/07/01 02:39:22;;;;;;;1.38;0.80;;;15.00;99.90;;;;;;6211615;23;20019;-68
2022/07/01 02:44:34;;;;;;;2.25;0.40;;;15.00;99.90;;;;;;6236130;23;20104;-68
2022/07/01 02:47:00;;;;;;;0.50;0.40;;;15.00;99.90;;;;;;6211393;23;20027;-68
2022/07/01 02:49:26;;;;;;;0.80;0.50;;;15.00;99.90;;;;;;6236912;23;20016;-68
2022/07/01 02:51:51;;;;;;;5.10;0.60;;;15.00;99.90;;;;;;6187233;23;20023;-67
2022/07/01 02:54:17;;;;;;;0.85;0.63;;;15.00;99.90;;;;;;6238847;23;20020;-68
2022/07/01 02:56:43;;;;;;;6.22;0.60;;;15.00;99.90;;;;;;6240073;23;20039;-68
2022/07/01 02:59:08;;;;;;;2.35;0.60;;;15.00;99.90;;;;;;6213187;23;20028;-68
2022/07/01 03:01:34;;;;;;;4.68;0.90;;;15.00;99.90;;;;;;6212243;23;20028;-68
2022/07/01 03:04:00;;;;;;;0.38;0.38;;;15.00;99.90;;;;;;6240112;23;20020;-68
2022/07/01 03:06:26;;;;;;;1.92;0.52;;;15.00;99.90;;;;;;6211436;23;20051;-67
2022/07/01 03:08:52;;;;;;;1.33;0.73;;;15.00;99.90;;;;;;6212865;23;20016;-68
2022/07/01 03:11:18;;;;;;;1.65;0.60;;;14.90;99.90;;;;;;6211474;23;20067;-68
2022/07/01 03:13:44;;;;;;;2.83;0.90;;;14.90;99.90;;;;;;6212610;23;20020;-68
2022/07/01 03:16:10;;;;;;;2.47;0.75;;;14.90;99.90;;;;;;6212055;23;20028;-67
2022/07/01 03:18:36;;;;;;;1.58;0.70;;;14.90;99.90;;;;;;6212497;23;20047;-68
2022/07/01 03:21:01;;;;;;;5.18;0.98;;;14.80;99.90;;;;;;6239997;23;20027;-68
2022/07/01 03:23:27;;;;;;;2.42;1.05;;;14.80;99.90;;;;;;6186725;23;20477;-68
2022/07/01 03:25:53;;;;;;;1.80;0.85;;;14.80;99.90;;;;;;6239683;23;20391;-68
2022/07/01 03:28:18;;;;;;;1.67;0.80;;;14.80;99.90;;;;;;6238339;23;20071;-68
2022/07/01 03:30:44;;;;;;;1.00;0.68;;;14.80;99.90;;;;;;6212506;23;20066;-67
2022/07/01 03:33:10;;;;;;;2.42;0.70;;;14.80;99.90;;;;;;6238521;23;20096;-68
2022/07/01 03:35:35;;;;;;;5.18;0.85;;;14.80;99.90;;;;;;6239622;23;20024;-68
2022/07/01 03:42:13;;;;;;;1.60;0.80;;;14.90;99.90;;;;;;6248424;22;20077;-68
2022/07/01 03:44:40;;;;;;;2.67;1.00;;;14.80;99.90;;;;;;6240799;22;20032;-67
2022/07/01 03:47:06;;;;;;;1.30;0.80;;;14.80;99.90;;;;;;6237156;23;20312;-68
2022/07/01 03:49:33;;;;;;;4.63;1.10;;;14.80;99.90;;;;;;6213545;23;20024;-68
2022/07/01 03:51:59;;;;;;;4.28;0.80;;;14.80;99.90;;;;;;6240262;23;20012;-67
2022/07/01 03:54:32;;;;;;;1.55;0.90;;;14.80;99.90;;;;;;6240587;23;20478;-67
2022/07/01 03:57:16;;;;;;;3.10;1.10;;;14.80;99.90;;;;;;6264411;22;20091;-67
2022/07/01 03:59:42;;;;;;;1.65;0.85;;;14.80;99.90;;;;;;6237561;23;20020;-67
2022/07/01 04:02:08;;;;;;;2.97;1.00;;;14.80;99.90;;;;;;6240769;22;20022;-68
2022/07/01 04:04:35;;;;;;;1.00;0.95;;;14.70;99.90;;;;;;6236998;23;20103;-68
2022/07/01 04:07:03;;;;;;;1.75;1.00;;;14.80;99.90;;;;;;6264484;22;20031;-68
2022/07/01 04:09:31;;;;;;;2.22;1.00;;;14.80;99.90;;;;;;6238193;23;20052;-67
2022/07/01 04:11:57;;;;;;;2.08;0.82;;;14.80;99.90;;;;;;6238317;23;20105;-67
2022/07/01 04:14:26;;;;;;;1.50;0.80;;;14.80;99.90;;;;;;6241013;23;20091;-67
2022/07/01 04:16:53;;;;;;;2.10;1.00;;;14.70;99.90;;;;;;6237194;23;20399;-68
2022/07/01 04:19:19;;;;;;;4.13;1.20;;;14.80;99.90;;;;;;6238460;23;20101;-67
2022/07/01 04:24:43;;;;;;;2.03;1.00;;;14.80;99.90;;;;;;6221390;23;20016;-68
2022/07/01 04:27:09;;;;;;;3.88;1.27;;;14.80;99.90;;;;;;6240469;23;20458;-68
2022/07/01 04:29:35;;;;;;;0.75;0.73;;;14.80;99.90;;;;;;6238960;23;20015;-68
2022/07/01 04:32:01;;;;;;;4.38;1.00;;;14.80;99.90;;;;;;6238748;23;20055;-68
2022/07/01 04:34:27;;;;;;;2.30;1.00;;;14.90;99.90;;;;;;6211811;23;20016;-68
2022/07/01 04:36:52;;;;;;;3.17;0.90;;;14.90;99.90;;;;;;6240092;23;20156;-67
2022/07/01 04:39:18;;;;;;;2.97;1.02;;;14.90;99.90;;;;;;6239172;22;20012;-68
2022/07/01 04:41:59;;;;;;;2.28;1.20;;;14.90;99.90;;;;;;6263755;22;20020;-67
2022/07/01 04:44:32;;;;;;;2.35;0.90;;;14.90;99.90;;;;;;6215345;23;20115;-67
2022/07/01 04:46:58;;;;;;;6.28;1.30;;;14.90;99.90;;;;;;6261127;22;20020;-67
2022/07/01 04:49:24;;;;;;;7.13;1.23;;;14.90;99.90;;;;;;6239358;23;20023;-68
2022/07/01 04:51:51;;;;;;;4.22;1.63;;;14.90;99.90;;;;;;6235401;23;20012;-68
2022/07/01 04:54:17;;;;;;;6.03;1.50;;;14.90;99.90;;;;;;6237424;23;20023;-67
2022/07/01 04:56:43;;;;;;;3.38;1.23;;;14.90;99.90;;;;;;6237878;23;20016;-68
2022/07/01 04:59:09;;;;;;;2.83;1.38;;;14.90;99.90;;;;;;6236892;23;20090;-67
2022/07/01 05:01:35;;;;;;;1.85;1.00;;;14.90;99.90;;;;;;6237048;23;20111;-68
2022/07/01 05:04:02;;;;;;;2.28;1.10;;;14.90;99.90;;;;;;6261490;22;20420;-67
2022/07/01 05:06:27;;;;;;;2.75;1.40;;;15.00;99.90;;;;;;6238719;23;20470;-68
2022/07/01 05:08:53;;;;;;;3.40;1.50;;;14.90;99.90;;;;;;6236800;23;20020;-67
2022/07/01 05:11:19;;;;;;;3.10;1.33;;;15.00;99.90;;;;;;6237464;23;20020;-68
2022/07/01 05:13:45;;;;;;;3.65;2.05;;;14.90;99.90;;;;;;6235506;23;20074;-67
2022/07/01 05:16:11;;;;;;;3.50;1.52;;;14.90;99.90;;;;;;6236496;23;20470;-68
2022/07/01 05:24:08;;;;;;;3.30;1.48;;;15.10;99.90;;;;;;6237089;23;20383;-68
2022/07/01 05:26:34;;;;;;;3.83;1.52;;;15.10;99.90;;;;;;6236990;23;20466;-68
2022/07/01 05:28:59;;;;;;;2.20;1.33;;;15.10;99.90;;;;;;6261887;22;20016;-67
2022/07/01 05:31:25;;;;;;;4.53;2.10;;;15.20;99.90;;;;;;6238000;23;20146;-68
2022/07/01 05:33:51;;;;;;;4.20;2.25;;;15.20;99.90;;;;;;6235976;23;20030;-68
2022/07/01 05:36:17;;;;;;;4.38;2.53;;;15.20;99.90;;;;;;6238201;23;20087;-67
2022/07/01 05:38:43;;;;;;;2.95;2.13;;;15.20;99.90;;;;;;6260879;22;20015;-68
2022/07/01 05:41:09;;;;;;;3.47;2.58;;;15.20;99.90;;;;;;6238492;23;20160;-67
2022/07/01 05:43:34;;;;;;;4.20;3.05;;;15.20;99.90;;;;;;6235443;23;20031;-67
2022/07/01 05:46:01;;;;;;;2.58;2.22;;;15.20;99.90;;;;;;6236439;23;20119;-67
2022/07/01 05:48:27;;;;;;;5.88;3.30;;;15.20;99.90;;;;;;6237471;23;20012;-67
2022/07/01 05:50:53;;;;;;;8.32;3.40;;;15.30;99.90;;;;;;6235997;23;20024;-68
2022/07/01 05:53:19;;;;;;;5.05;3.25;;;15.30;99.90;;;;;;6236897;23;20382;-67
2022/07/01 05:55:45;;;;;;;6.13;3.63;;;15.30;99.90;;;;;;6235074;23;20032;-68
2022/07/01 05:58:12;;;;;;;5.72;3.83;;;15.30;99.90;;;;;;6211510;23;20027;-67
2022/07/01 06:00:42;;;;;;;6.60;4.20;;;15.40;99.90;;;;;;6236987;22;20012;-67
2022/07/01 06:03:12;;;;;;;4.60;3.80;;;15.30;99.90;;;;;;6238730;23;20028;-67
2022/07/01 06:05:38;;;;;;;8.50;4.55;;;15.40;99.90;;;;;;6236997;23;20425;-67
2022/07/01 06:08:05;;;;;;;9.80;5.93;;;15.40;99.90;;;;;;6237568;23;20362;-68
2022/07/01 06:10:31;;;;;;;14.05;5.78;;;15.40;99.90;;;;;;6236485;23;20020;-66
2022/07/01 06:12:57;;;;;;;11.57;6.28;;;15.40;99.90;;;;;;6236561;23;20024;-67
2022/07/01 06:15:23;;;;;;;8.30;6.13;;;15.40;99.90;;;;;;6211217;23;20047;-67
2022/07/01 06:17:49;;;;;;;9.77;7.30;;;15.50;99.90;;;;;;6236699;23;20123;-68
2022/07/01 06:20:15;;;;;;;8.13;7.30;;;15.50;99.90;;;;;;6238426;23;20462;-67
2022/07/01 06:22:41;;;;;;;10.77;7.45;;;15.60;99.90;;;;;;6184721;23;20055;-67
2022/07/01 06:25:07;;;;;;;14.68;7.47;;;15.60;99.90;;;;;;6237443;23;20023;-67
2022/07/01 06:27:41;;;;;;;14.65;8.40;;;15.60;99.90;;;;;;6212487;23;20016;-67
2022/07/01 06:30:08;;;;;;;13.85;8.65;;;15.70;99.90;;;;;;6212131;23;20016;-68
2022/07/01 06:32:33;;;;;;;13.07;9.30;;;15.70;99.90;;;;;;6213119;23;20439;-67
2022/07/01 06:34:59;;;;;;;12.73;9.63;;;15.70;99.90;;;;;;6211643;23;20046;-67
2022/07/01 06:37:25;;;;;;;11.82;8.65;;;15.70;99.90;;;;;;6240007;23;20452;-67
2022/07/01 06:39:50;;;;;;;13.52;8.75;;;15.70;99.90;;;;;;6211488;23;20024;-67
2022/07/01 06:42:16;;;;;;;14.75;7.35;;;15.80;99.90;;;;;;6238257;23;20346;-67
2022/07/01 06:44:42;;;;;;;15.05;8.48;;;15.80;99.90;;;;;;6238646;23;20031;-67
2022/07/01 06:47:08;;;;;;;17.25;8.75;;;15.80;99.90;;;;;;6239615;23;20016;-67
2022/07/01 06:49:34;;;;;;;14.98;9.18;;;15.80;99.90;;;;;;6240053;23;20016;-67
2022/07/01 06:51:59;;;;;;;13.20;8.77;;;15.80;99.90;;;;;;6238069;23;20020;-67
2022/07/01 06:54:25;;;;;;;20.60;9.38;;;15.80;99.90;;;;;;6240180;23;20635;-67
2022/07/01 06:56:51;;;;;;;15.35;9.15;;;15.80;99.90;;;;;;6211292;23;20055;-67
2022/07/01 06:59:18;;;;;;;10.93;8.98;;;15.80;99.90;;;;;;6240082;23;20031;-67
2022/07/01 07:01:44;;;;;;;12.95;8.13;;;15.90;99.90;;;;;;6209112;23;20013;-67
2022/07/01 07:04:16;;;;;;;12.10;8.15;;;16.00;99.90;;;;;;6211846;23;20678;-68
2022/07/01 07:06:42;;;;;;;10.85;8.50;;;16.10;99.90;;;;;;6236554;23;20035;-68
2022/07/01 07:09:08;;;;;;;13.05;8.73;;;16.10;99.90;;;;;;6184217;23;20114;-67
2022/07/01 07:11:34;;;;;;;11.05;8.85;;;16.10;99.90;;;;;;6209957;23;20035;-67
2022/07/01 07:13:59;;;;;;;12.27;8.55;;;16.20;99.90;;;;;;6208192;23;20028;-68
2022/07/01 07:16:26;;;;;;;10.98;7.75;;;16.30;99.90;;;;;;6211628;23;20062;-67
2022/07/01 07:18:52;;;;;;;13.38;7.82;;;16.30;99.90;;;;;;6210807;23;20410;-66
2022/07/01 07:21:18;;;;;;;15.65;8.52;;;16.30;99.90;;;;;;6211733;23;20115;-66
2022/07/01 07:23:44;;;;;;;10.15;7.82;;;16.40;99.90;;;;;;6238882;23;20070;-66
2022/07/01 07:26:11;;;;;;;14.15;7.07;;;16.40;99.90;;;;;;6238741;23;20142;-66
2022/07/01 07:28:37;;;;;;;10.35;7.20;;;16.50;99.90;;;;;;6239809;23;20018;-66
2022/07/01 07:31:03;;;;;;;11.23;7.40;;;16.70;99.90;;;;;;6237728;23;20016;-66
2022/07/01 07:33:29;;;;;;;11.88;7.38;;;16.70;99.90;;;;;;6213387;23;20024;-66
2022/07/01 07:35:55;;;;;;;12.23;8.35;;;16.80;99.90;;;;;;6210866;23;20513;-66
2022/07/01 07:38:21;;;;;;;11.38;6.90;;;17.00;99.90;;;;;;6239677;23;20546;-66
2022/07/01 07:40:47;;;;;;;9.20;6.38;;;17.30;99.90;;;;;;6238786;23;20451;-66
2022/07/01 07:43:12;;;;;;;13.82;6.82;;;17.40;99.90;;;;;;6237953;23;20336;-66
2022/07/01 07:45:39;;;;;;;14.60;7.60;;;17.40;99.90;;;;;;6236880;23;20020;-66
2022/07/01 07:48:06;;;;;;;10.50;6.72;;;17.40;99.90;;;;;;6210643;23;20165;-65
2022/07/01 07:50:32;;;;;;;7.95;5.68;;;17.40;99.90;;;;;;6239251;23;20016;-65
2022/07/01 07:53:01;;;;;;;9.20;5.43;;;17.30;99.90;;;;;;6237041;23;20020;-66
2022/07/01 07:55:28;;;;;;;10.68;5.63;;;17.30;99.90;;;;;;6212417;23;20016;-66
2022/07/01 07:57:54;;;;;;;8.55;6.10;;;17.20;99.90;;;;;;6209614;23;20051;-66
2022/07/01 08:00:20;;;;;;;13.80;6.13;;;17.20;99.90;;;;;;6212269;23;20012;-66
2022/07/01 08:02:46;;;;;;;13.43;6.50;;;17.20;99.90;;;;;;6238624;23;20022;-66
2022/07/01 08:05:12;;;;;;;12.57;6.55;;;17.20;99.90;;;;;;6211447;23;20458;-65
2022/07/01 08:07:41;;;;;;;14.00;8.68;;;17.20;99.90;;;;;;6239135;23;20035;-66
2022/07/01 08:10:09;;;;;;;13.27;8.60;;;17.40;99.90;;;;;;6234807;23;20012;-66
2022/07/01 08:12:35;;;;;;;10.50;7.15;;;17.50;99.90;;;;;;6239136;23;20024;-66
2022/07/01 08:15:02;;;;;;;14.85;6.80;;;17.50;99.90;;;;;;6236849;23;20012;-66
2022/07/01 08:17:27;;;;;;;10.65;7.35;;;17.50;99.90;;;;;;6238739;23;20094;-66
2022/07/01 08:19:53;;;;;;;12.35;6.90;;;17.40;99.90;;;;;;6238012;23;20074;-66
2022/07/01 08:22:19;;;;;;;11.82;6.60;;;17.60;99.90;;;;;;6237480;23;20016;-65
2022/07/01 08:24:45;;;;;;;9.63;6.65;;;17.70;99.90;;;;;;6239241;23;20020;-65
2022/07/01 08:27:12;;;;;;;17.42;7.30;;;17.80;99.90;;;;;;6237489;23;20367;-65
2022/07/01 08:29:39;;;;;;;8.50;5.90;;;17.80;99.90;;;;;;6211834;23;20395;-66
2022/07/01 08:32:06;;;;;;;7.82;5.60;;;17.90;99.90;;;;;;6210118;23;20234;-66
2022/07/01 08:34:31;;;;;;;8.30;6.75;;;17.90;99.90;;;;;;6212065;23;20347;-65
2022/07/01 08:36:57;;;;;;;12.55;7.03;;;17.90;99.90;;;;;;6237022;23;20016;-65
2022/07/01 08:39:23;;;;;;;10.15;6.80;;;18.10;99.90;;;;;;6238853;23;20436;-65
2022/07/01 08:41:49;;;;;;;12.02;6.68;;;18.20;99.90;;;;;;6238590;23;20028;-65
2022/07/01 08:44:16;;;;;;;9.90;6.32;;;18.50;99.90;;;;;;6210409;23;20055;-65
2022/07/01 08:46:42;;;;;;;8.55;6.70;;;18.50;99.90;;;;;;6236420;23;20016;-66
2022/07/01 08:49:07;;;;;;;11.23;7.75;;;18.40;99.90;;;;;;6184215;23;20431;-65
2022/07/01 08:51:33;;;;;;;9.07;6.10;;;18.20;99.90;;;;;;6238193;23;20095;-65
2022/07/01 08:53:59;;;;;;;9.98;6.28;;;18.20;99.90;;;;;;6210227;23;20016;-64
2022/07/01 08:56:45;;;;;;;8.00;5.68;;;18.20;99.90;;;;;;6238563;23;20452;-65
2022/07/01 08:59:13;;;;;;;9.15;5.82;;;18.30;99.90;;;;;;6215687;23;20439;-64
2022/07/01 09:01:40;;;;;;;11.55;6.57;;;18.30;99.90;;;;;;6185819;23;20016;-65
2022/07/01 09:04:19;;;;;;;13.82;7.55;;;18.30;99.90;;;;;;6238634;23;20360;-64
2022/07/01 09:06:46;;;;;;;11.98;7.20;;;18.40;99.90;;;;;;6237174;23;20099;-65
2022/07/01 09:09:13;;;;;;;11.43;6.20;;;18.40;99.90;;;;;;6238084;23;20369;-64
2022/07/01 09:11:53;;;;;;;8.65;6.63;;;18.40;99.90;;;;;;6210516;23;20027;-64
2022/07/01 09:14:29;;;;;;;11.25;7.32;;;18.30;99.90;;;;;;6210131;23;20024;-65
2022/07/01 09:16:58;;;;;;;8.73;6.10;;;18.20;99.90;;;;;;6211949;23;20083;-65
2022/07/01 09:19:26;;;;;;;14.70;5.78;;;18.10;99.90;;;;;;6237098;23;20016;-64
2022/07/01 09:21:58;;;;;;;10.68;5.45;;;18.10;99.90;;;;;;6238485;23;20031;-65
2022/07/01 09:24:33;;;;;;;11.25;4.63;;;18.00;99.90;;;;;;6236960;23;20046;-64
2022/07/01 09:27:08;;;;;;;10.55;4.80;;;18.20;99.90;;;;;;6237815;23;20016;-65
2022/07/01 09:29:39;;;;;;;9.10;3.90;;;18.30;99.90;;;;;;6210064;23;20012;-65
2022/07/01 09:32:07;;;;;;;7.28;4.03;;;18.30;99.90;;;;;;6209811;23;20016;-64
2022/07/01 09:34:42;;;;;;;5.00;4.32;;;18.40;99.90;;;;;;6238391;23;20030;-64
2022/07/01 09:37:12;;;;;;;8.05;4.45;;;18.40;99.90;;;;;;6209233;23;20475;-64
2022/07/01 09:39:47;;;;;;;6.45;4.40;;;18.50;99.90;;;;;;6237779;23;20461;-65
2022/07/01 09:42:14;;;;;;;11.20;4.93;;;18.70;99.90;;;;;;6237133;23;20124;-65
2022/07/01 09:44:58;;;;;;;7.82;4.30;;;18.90;99.90;;;;;;6236674;23;20012;-65
2022/07/01 09:47:25;;;;;;;8.35;4.15;;;19.20;99.90;;;;;;6238024;23;20016;-65
2022/07/01 09:49:51;;;;;;;12.70;5.38;;;19.50;99.90;;;;;;6236907;23;20016;-65
2022/07/01 09:52:19;;;;;;;8.82;5.15;;;19.70;99.90;;;;;;6237332;23;20100;-65
2022/07/01 09:54:49;;;;;;;13.25;4.93;;;19.70;99.90;;;;;;6235982;23;20497;-65
2022/07/01 09:57:20;;;;;;;14.68;5.30;;;19.80;99.90;;;;;;6210646;23;20466;-66
2022/07/01 09:59:47;;;;;;;6.97;3.83;;;20.00;99.90;;;;;;6237928;23;20074;-65
2022/07/01 10:02:13;;;;;;;7.45;3.83;;;20.40;99.90;;;;;;6184125;23;20012;-66
2022/07/01 10:05:06;;;;;;;5.75;3.60;;;20.50;99.90;;;;;;6207600;23;20115;-65
2022/07/01 10:07:38;;;;;;;5.78;2.97;;;20.50;97.40;;;;;;6235174;23;20125;-65
2022/07/01 10:10:10;;;;;;;8.15;2.95;;;20.10;96.00;;;;;;6237580;23;20447;-65
2022/07/01 10:12:43;;;;;;;7.05;2.88;;;19.80;99.20;;;;;;6237417;23;20104;-65
2022/07/01 10:15:12;;;;;;;9.38;3.03;;;19.50;99.90;;;;;;6237099;23;20012;-65
2022/07/01 10:17:44;;;;;;;6.72;3.08;;;19.40;99.90;;;;;;6237573;23;20512;-65
2022/07/01 10:20:18;;;;;;;9.40;3.00;;;19.40;99.90;;;;;;6209439;23;20447;-65
2022/07/01 10:22:45;;;;;;;2.80;1.50;;;19.40;99.90;;;;;;6238142;23;20385;-65
2022/07/01 10:25:43;;;;;;;8.70;2.55;;;19.50;99.90;;;;;;6236099;23;20020;-65
2022/07/01 10:28:25;;;;;;;5.50;2.58;;;19.50;99.90;;;;;;6236395;23;20078;-65
2022/07/01 10:31:04;;;;;;;4.25;1.60;;;19.50;99.90;;;;;;6238326;23;20070;-66
2022/07/01 10:33:37;;;;;;;3.78;1.50;;;19.60;99.90;;;;;;6237537;23;20026;-65
2022/07/01 10:36:24;;;;;;;5.32;2.72;;;19.50;99.90;;;;;;6238374;23;20052;-65
2022/07/01 10:39:09;;;;;;;13.10;2.40;;;19.60;99.90;;;;;;6209959;23;20063;-65
2022/07/01 10:41:42;;;;;;;4.88;2.10;;;19.60;99.90;;;;;;6209300;23;20083;-65
2022/07/01 10:44:13;;;;;;;5.57;1.83;;;19.60;99.60;;;;;;6173545;23;20035;-65
2022/07/01 10:46:45;;;;;;;4.22;1.80;;;19.50;97.40;;;;;;6206586;23;20075;-66
2022/07/01 10:49:38;;;;;;;7.88;2.42;;;19.50;99.90;;;;;;6207082;23;20017;-65
2022/07/01 10:52:11;;;;;;;5.95;2.38;;;19.70;98.90;;;;;;6199991;23;20091;-65
2022/07/01 10:54:40;;;;;;;5.15;2.20;;;19.80;97.10;;;;;;6206642;23;20020;-65
2022/07/01 10:57:18;;;;;;;7.90;2.72;;;20.00;99.90;;;;;;6180978;23;20024;-65
2022/07/01 10:59:48;;;;;;;9.55;2.80;;;20.30;99.90;;;;;;6179971;23;20021;-65
2022/07/01 11:02:25;;;;;;;4.53;2.50;;;20.40;95.10;;;;;;6206026;23;20024;-65
2022/07/01 11:04:54;;;;;;;10.05;2.70;;;20.30;92.30;;;;;;6207132;23;20087;-65
2022/07/01 11:07:20;;;;;;;7.13;3.63;;;20.50;99.00;;;;;;6204188;23;20039;-66
2022/07/01 11:09:46;;;;;;;6.15;3.75;;;20.80;97.50;;;;;;6181166;23;20794;-66
2022/07/01 11:12:15;;;;;;;5.43;2.90;;;20.80;94.20;;;;;;6205210;23;20020;-65
2022/07/01 11:14:41;;;;;;;8.40;2.90;;;20.80;90.60;;;;;;6206032;23;20098;-66
2022/07/01 11:17:09;;;;;;;6.28;2.22;;;20.70;89.00;;;;;;6208060;23;20074;-66
2022/07/01 11:19:36;;;;;;;6.63;2.58;;;20.60;91.50;;;;;;6208442;23;20088;-66
2022/07/01 11:22:03;;;;;;;7.32;2.47;;;20.50;84.20;;;;;;6209103;23;20367;-65
2022/07/01 11:24:29;;;;;;;4.28;2.45;;;20.50;93.20;;;;;;6206701;23;20830;-66
2022/07/01 11:27:01;;;;;;;5.05;2.22;;;20.40;87.30;;;;;;6208834;23;20028;-65
2022/07/01 11:29:29;;;;;;;6.57;2.50;;;20.40;94.70;;;;;;6207401;23;20028;-66
2022/07/01 11:31:55;;;;;;;4.93;2.10;;;20.50;91.80;;;;;;6209839;23;20063;-66
2022/07/01 11:34:28;;;;;;;7.10;2.28;;;20.50;89.30;;;;;;6207239;23;20542;-67
2022/07/01 11:39:41;;;;;;;10.75;2.10;;;20.30;95.20;;;;;;6209035;23;20071;-66
2022/07/01 11:42:08;;;;;;;7.50;2.80;;;20.50;95.90;;;;;;6208136;23;20078;-66
2022/07/01 11:44:36;;;;;;;5.30;2.58;;;20.60;85.00;;;;;;6226135;23;20437;-66
2022/07/01 11:47:11;;;;;;;11.95;3.53;;;20.70;90.50;;;;;;6238540;23;20042;-66
2022/07/01 11:49:47;;;;;;;7.72;3.08;;;20.80;93.20;;;;;;6239169;23;20336;-66
2022/07/01 11:52:14;;;;;;;5.88;3.17;;;20.80;85.50;;;;;;6238674;23;20473;-66
2022/07/01 11:54:41;;;;;;;5.20;3.15;;;20.80;92.60;;;;;;6237861;23;20462;-66
2022/07/01 11:57:15;;;;;;;7.50;2.75;;;20.80;88.90;;;;;;6212396;23;20455;-66
2022/07/01 11:59:42;;;;;;;4.13;2.22;;;20.90;87.70;;;;;;6211254;23;20024;-66
2022/07/01 12:02:10;;;;;;;9.43;2.55;;;20.90;76.40;;;;;;6240066;23;20016;-66
2022/07/01 12:04:37;;;;;;;8.10;2.38;;;20.80;85.30;;;;;;6238191;23;20051;-66
2022/07/01 12:07:05;;;;;;;1.95;1.08;;;20.70;87.50;;;;;;6239485;23;20016;-66
2022/07/01 12:09:31;;;;;;;4.82;0.80;;;20.20;61.10;;;;;;6238728;23;20027;-66
2022/07/01 12:11:57;;;;;;;2.72;0.63;;;19.60;67.30;;;;;;6238573;23;20415;-66
2022/07/01 12:14:32;;;;;;;3.30;0.90;;;18.90;75.30;;;;;;6212403;23;20024;-66
2022/07/01 12:17:00;;;;;;;1.45;0.73;;;18.40;80.20;;;;;;6210835;23;20059;-66
2022/07/01 12:19:36;;;;;;;2.33;1.17;;;18.20;86.80;;;;;;6212197;23;20328;-66
2022/07/01 12:22:06;;;;;;;3.10;0.95;;;17.90;91.40;;;;;;6238164;23;20096;-66
2022/07/01 12:24:32;;;;;;;6.20;0.80;;;17.70;94.20;;;;;;6237677;23;20335;-66
2022/07/01 12:26:58;;;;;;;3.22;0.80;;;17.70;94.90;;;;;;6212780;23;20016;-66
2022/07/01 12:29:26;;;;;;;4.38;1.30;;;17.70;94.00;;;;;;6237796;23;20035;-66
2022/07/01 12:32:03;;;;;;;1.45;0.77;;;17.70;92.90;;;;;;6212462;23;20350;-66
2022/07/01 12:34:40;;;;;;;3.42;1.00;;;17.80;93.90;;;;;;6237800;23;20106;-67
2022/07/01 12:37:17;;;;;;;6.32;0.90;;;17.90;94.60;;;;;;6211857;23;20024;-66
2022/07/01 12:39:49;;;;;;;8.63;0.98;;;18.20;99.70;;;;;;6212191;23;20389;-67
2022/07/01 12:42:39;;;;;;;2.33;0.85;;;18.70;98.70;;;;;;6237996;23;20016;-67
2022/07/01 12:45:06;;;;;;;;;;;19.10;95.50;;;;;;6239660;23;20022;-67
2022/07/01 12:47:34;;;;;;;2.90;0.90;;;19.10;94.40;;;;;;6237336;23;20175;-66
2022/07/01 12:50:10;;;;;;;1.00;0.40;;;19.00;95.40;;;;;;6187096;23;20706;-66
2022/07/01 12:52:37;;;;;;;4.90;0.90;;;18.90;95.90;;;;;;6210660;23;20027;-67
2022/07/01 12:55:20;;;;;;;5.07;0.82;;;18.90;93.90;;;;;;6211224;23;20447;-66
2022/07/01 12:57:51;;;;;;;2.28;0.77;;;18.80;93.00;;;;;;6162350;23;20455;-66
2022/07/01 13:00:18;;;;;;;7.57;0.70;;;19.00;90.20;;;;;;6210884;23;20027;-67
2022/07/01 13:02:45;;;;;;;4.45;0.80;;;19.10;92.70;;;;;;6239040;23;20012;-66
2022/07/01 13:05:11;;;;;;;4.70;0.88;;;19.30;98.20;;;;;;6237489;23;20016;-67
2022/07/01 13:07:37;;;;;;;6.63;0.88;;;19.50;93.30;;;;;;6238357;23;20051;-67